sensor_id;sensor_type;location;lat;lon;timestamp;P1;durP1;ratioP1;P2;durP2;ratioP2
4734;SDS011;2381;50.676;12.612;2022-08-21T00:01:50;13.50;;;3.97;;
4734;SDS011;2381;50.676;12.612;2022-08-21T00:04:54;13.10;;;2.60;;
4734;SDS011;2381;50.676;12.612;2022-08-21T00:07:59;12.87;;;2.60;;
4734;SDS011;2381;50.676;12.612;2022-08-21T00:11:03;14.27;;;5.40;;
4734;SDS011;2381;50.676;12.612;2022-08-21T00:14:07;13.63;;;3.07;;
4734;SDS011;2381;50.676;12.612;2022-08-21T00:17:11;19.17;;;2.73;;
4734;SDS011;2381;50.676;12.612;2022-08-21T00:20:15;12.63;;;2.00;;
4734;SDS011;2381;50.676;12.612;2022-08-21T00:23:20;13.10;;;3.17;;
4734;SDS011;2381;50.676;12.612;2022-08-21T00:26:23;12.67;;;1.87;;
4734;SDS011;2381;50.676;12.612;2022-08-21T00:29:26;14.40;;;3.43;;
4734;SDS011;2381;50.676;12.612;2022-08-21T00:32:28;12.90;;;2.97;;
4734;SDS011;2381;50.676;12.612;2022-08-21T00:35:32;12.77;;;2.40;;
4734;SDS011;2381;50.676;12.612;2022-08-21T00:38:38;12.97;;;3.10;;
4734;SDS011;2381;50.676;12.612;2022-08-21T00:41:42;13.37;;;2.23;;
4734;SDS011;2381;50.676;12.612;2022-08-21T00:44:46;16.03;;;3.23;;
4734;SDS011;2381;50.676;12.612;2022-08-21T00:47:51;13.20;;;3.47;;
4734;SDS011;2381;50.676;12.612;2022-08-21T00:50:57;15.93;;;3.17;;
4734;SDS011;2381;50.676;12.612;2022-08-21T00:54:03;14.17;;;4.70;;
4734;SDS011;2381;50.676;12.612;2022-08-21T00:57:16;16.03;;;3.57;;
4734;SDS011;2381;50.676;12.612;2022-08-21T01:00:24;12.93;;;2.20;;
4734;SDS011;2381;50.676;12.612;2022-08-21T01:03:30;13.20;;;3.10;;
4734;SDS011;2381;50.676;12.612;2022-08-21T01:06:35;12.67;;;1.60;;
4734;SDS011;2381;50.676;12.612;2022-08-21T01:09:39;12.97;;;2.63;;
4734;SDS011;2381;50.676;12.612;2022-08-21T01:12:42;14.33;;;3.80;;
4734;SDS011;2381;50.676;12.612;2022-08-21T01:15:46;12.87;;;2.43;;
4734;SDS011;2381;50.676;12.612;2022-08-21T01:18:53;12.73;;;1.90;;
4734;SDS011;2381;50.676;12.612;2022-08-21T01:21:58;15.63;;;3.10;;
4734;SDS011;2381;50.676;12.612;2022-08-21T01:25:02;15.27;;;5.10;;
4734;SDS011;2381;50.676;12.612;2022-08-21T01:28:07;13.73;;;3.37;;
4734;SDS011;2381;50.676;12.612;2022-08-21T01:31:13;16.43;;;3.60;;
4734;SDS011;2381;50.676;12.612;2022-08-21T01:34:26;14.10;;;4.50;;
4734;SDS011;2381;50.676;12.612;2022-08-21T01:37:30;12.63;;;1.83;;
4734;SDS011;2381;50.676;12.612;2022-08-21T01:40:34;20.17;;;4.83;;
4734;SDS011;2381;50.676;12.612;2022-08-21T01:43:36;16.40;;;4.00;;
4734;SDS011;2381;50.676;12.612;2022-08-21T01:46:40;12.67;;;2.10;;
4734;SDS011;2381;50.676;12.612;2022-08-21T01:49:43;13.50;;;4.13;;
4734;SDS011;2381;50.676;12.612;2022-08-21T01:52:48;13.40;;;3.93;;
4734;SDS011;2381;50.676;12.612;2022-08-21T01:55:51;12.73;;;2.17;;
4734;SDS011;2381;50.676;12.612;2022-08-21T01:58:54;14.37;;;3.43;;
4734;SDS011;2381;50.676;12.612;2022-08-21T02:01:57;14.10;;;4.53;;
4734;SDS011;2381;50.676;12.612;2022-08-21T02:05:00;12.63;;;1.73;;
4734;SDS011;2381;50.676;12.612;2022-08-21T02:08:05;17.93;;;3.53;;
4734;SDS011;2381;50.676;12.612;2022-08-21T02:11:09;12.90;;;1.80;;
4734;SDS011;2381;50.676;12.612;2022-08-21T02:14:12;14.10;;;4.07;;
4734;SDS011;2381;50.676;12.612;2022-08-21T02:17:37;13.50;;;2.77;;
4734;SDS011;2381;50.676;12.612;2022-08-21T02:20:42;13.00;;;2.67;;
4734;SDS011;2381;50.676;12.612;2022-08-21T02:23:49;12.87;;;2.50;;
4734;SDS011;2381;50.676;12.612;2022-08-21T02:26:52;13.00;;;2.87;;
4734;SDS011;2381;50.676;12.612;2022-08-21T02:29:55;12.70;;;1.97;;
4734;SDS011;2381;50.676;12.612;2022-08-21T02:32:59;13.30;;;3.37;;
4734;SDS011;2381;50.676;12.612;2022-08-21T02:36:02;19.43;;;2.83;;
4734;SDS011;2381;50.676;12.612;2022-08-21T02:39:07;12.77;;;2.27;;
4734;SDS011;2381;50.676;12.612;2022-08-21T02:42:10;13.17;;;3.33;;
4734;SDS011;2381;50.676;12.612;2022-08-21T02:45:13;17.73;;;6.23;;
4734;SDS011;2381;50.676;12.612;2022-08-21T02:48:18;16.63;;;4.03;;
4734;SDS011;2381;50.676;12.612;2022-08-21T02:51:22;15.87;;;3.53;;
4734;SDS011;2381;50.676;12.612;2022-08-21T02:54:27;13.40;;;3.37;;
4734;SDS011;2381;50.676;12.612;2022-08-21T02:57:30;13.60;;;3.93;;
4734;SDS011;2381;50.676;12.612;2022-08-21T03:00:34;13.83;;;4.50;;
4734;SDS011;2381;50.676;12.612;2022-08-21T03:03:39;12.87;;;2.00;;
4734;SDS011;2381;50.676;12.612;2022-08-21T03:06:43;14.80;;;4.43;;
4734;SDS011;2381;50.676;12.612;2022-08-21T03:09:47;14.67;;;4.00;;
4734;SDS011;2381;50.676;12.612;2022-08-21T03:12:56;15.10;;;5.97;;
4734;SDS011;2381;50.676;12.612;2022-08-21T03:15:59;16.60;;;9.30;;
4734;SDS011;2381;50.676;12.612;2022-08-21T03:19:04;14.50;;;6.00;;
4734;SDS011;2381;50.676;12.612;2022-08-21T03:22:07;13.50;;;4.97;;
4734;SDS011;2381;50.676;12.612;2022-08-21T03:25:11;18.17;;;5.93;;
4734;SDS011;2381;50.676;12.612;2022-08-21T03:28:15;14.20;;;5.57;;
4734;SDS011;2381;50.676;12.612;2022-08-21T03:31:19;14.90;;;6.20;;
4734;SDS011;2381;50.676;12.612;2022-08-21T03:34:39;16.00;;;8.20;;
4734;SDS011;2381;50.676;12.612;2022-08-21T03:37:48;13.70;;;4.63;;
4734;SDS011;2381;50.676;12.612;2022-08-21T03:41:15;17.67;;;9.13;;
4734;SDS011;2381;50.676;12.612;2022-08-21T03:45:05;14.13;;;6.60;;
4734;SDS011;2381;50.676;12.612;2022-08-21T03:48:42;14.93;;;6.63;;
4734;SDS011;2381;50.676;12.612;2022-08-21T03:52:01;18.20;;;4.53;;
4734;SDS011;2381;50.676;12.612;2022-08-21T03:55:23;17.80;;;6.77;;
4734;SDS011;2381;50.676;12.612;2022-08-21T03:59:19;25.33;;;8.90;;
4734;SDS011;2381;50.676;12.612;2022-08-21T04:06:39;15.97;;;8.73;;
4734;SDS011;2381;50.676;12.612;2022-08-21T04:10:24;19.73;;;10.57;;
4734;SDS011;2381;50.676;12.612;2022-08-21T04:14:01;14.50;;;5.97;;
4734;SDS011;2381;50.676;12.612;2022-08-21T04:21:31;16.63;;;7.47;;
4734;SDS011;2381;50.676;12.612;2022-08-21T04:25:10;14.33;;;5.20;;
4734;SDS011;2381;50.676;12.612;2022-08-21T04:28:47;16.00;;;7.50;;
4734;SDS011;2381;50.676;12.612;2022-08-21T04:32:03;14.13;;;7.00;;
4734;SDS011;2381;50.676;12.612;2022-08-21T04:35:14;17.10;;;9.97;;
4734;SDS011;2381;50.676;12.612;2022-08-21T04:38:18;16.33;;;8.53;;
4734;SDS011;2381;50.676;12.612;2022-08-21T04:41:26;19.30;;;12.47;;
4734;SDS011;2381;50.676;12.612;2022-08-21T04:44:44;19.00;;;8.30;;
4734;SDS011;2381;50.676;12.612;2022-08-21T04:48:08;34.87;;;6.73;;
4734;SDS011;2381;50.676;12.612;2022-08-21T04:51:34;14.00;;;5.40;;
4734;SDS011;2381;50.676;12.612;2022-08-21T04:54:55;20.00;;;5.80;;
4734;SDS011;2381;50.676;12.612;2022-08-21T04:57:58;16.67;;;6.40;;
4734;SDS011;2381;50.676;12.612;2022-08-21T05:01:02;16.20;;;6.90;;
4734;SDS011;2381;50.676;12.612;2022-08-21T05:04:07;14.90;;;5.63;;
4734;SDS011;2381;50.676;12.612;2022-08-21T05:07:16;13.70;;;5.40;;
4734;SDS011;2381;50.676;12.612;2022-08-21T05:10:41;14.30;;;6.30;;
4734;SDS011;2381;50.676;12.612;2022-08-21T05:13:45;13.17;;;3.13;;
4734;SDS011;2381;50.676;12.612;2022-08-21T05:16:55;20.23;;;8.23;;
4734;SDS011;2381;50.676;12.612;2022-08-21T05:19:59;13.83;;;4.03;;
4734;SDS011;2381;50.676;12.612;2022-08-21T05:23:07;20.10;;;8.40;;
4734;SDS011;2381;50.676;12.612;2022-08-21T05:26:10;16.10;;;8.30;;
4734;SDS011;2381;50.676;12.612;2022-08-21T05:29:19;13.60;;;5.60;;
4734;SDS011;2381;50.676;12.612;2022-08-21T05:32:23;15.17;;;8.07;;
4734;SDS011;2381;50.676;12.612;2022-08-21T05:35:26;12.97;;;2.93;;
4734;SDS011;2381;50.676;12.612;2022-08-21T05:38:31;16.40;;;7.47;;
4734;SDS011;2381;50.676;12.612;2022-08-21T05:41:34;14.47;;;6.80;;
4734;SDS011;2381;50.676;12.612;2022-08-21T05:44:37;15.10;;;5.10;;
4734;SDS011;2381;50.676;12.612;2022-08-21T05:47:40;18.60;;;8.80;;
4734;SDS011;2381;50.676;12.612;2022-08-21T05:50:43;17.13;;;5.77;;
4734;SDS011;2381;50.676;12.612;2022-08-21T05:53:48;13.20;;;3.63;;
4734;SDS011;2381;50.676;12.612;2022-08-21T05:56:51;13.50;;;4.77;;
4734;SDS011;2381;50.676;12.612;2022-08-21T05:59:54;13.93;;;6.30;;
4734;SDS011;2381;50.676;12.612;2022-08-21T06:02:57;14.90;;;6.90;;
4734;SDS011;2381;50.676;12.612;2022-08-21T06:06:00;13.40;;;4.27;;
4734;SDS011;2381;50.676;12.612;2022-08-21T06:09:05;13.40;;;4.30;;
4734;SDS011;2381;50.676;12.612;2022-08-21T06:12:27;17.13;;;5.33;;
4734;SDS011;2381;50.676;12.612;2022-08-21T06:25:16;14.37;;;5.17;;
4734;SDS011;2381;50.676;12.612;2022-08-21T06:28:26;17.60;;;9.77;;
4734;SDS011;2381;50.676;12.612;2022-08-21T06:32:00;16.77;;;8.83;;
4734;SDS011;2381;50.676;12.612;2022-08-21T06:35:11;13.13;;;3.80;;
4734;SDS011;2381;50.676;12.612;2022-08-21T06:38:13;14.53;;;5.87;;
4734;SDS011;2381;50.676;12.612;2022-08-21T06:41:18;15.10;;;6.43;;
4734;SDS011;2381;50.676;12.612;2022-08-21T06:44:26;15.60;;;7.80;;
4734;SDS011;2381;50.676;12.612;2022-08-21T06:47:29;13.30;;;3.80;;
4734;SDS011;2381;50.676;12.612;2022-08-21T06:50:32;13.90;;;5.87;;
4734;SDS011;2381;50.676;12.612;2022-08-21T06:53:35;14.60;;;5.87;;
4734;SDS011;2381;50.676;12.612;2022-08-21T06:56:39;22.37;;;13.73;;
4734;SDS011;2381;50.676;12.612;2022-08-21T06:59:42;14.77;;;7.27;;
4734;SDS011;2381;50.676;12.612;2022-08-21T07:02:45;14.50;;;7.27;;
4734;SDS011;2381;50.676;12.612;2022-08-21T07:05:52;17.97;;;10.43;;
4734;SDS011;2381;50.676;12.612;2022-08-21T07:08:56;15.23;;;6.83;;
4734;SDS011;2381;50.676;12.612;2022-08-21T07:12:03;14.37;;;6.13;;
4734;SDS011;2381;50.676;12.612;2022-08-21T07:15:13;13.83;;;5.13;;
4734;SDS011;2381;50.676;12.612;2022-08-21T07:18:16;16.10;;;6.67;;
4734;SDS011;2381;50.676;12.612;2022-08-21T07:21:19;14.10;;;6.30;;
4734;SDS011;2381;50.676;12.612;2022-08-21T07:24:26;13.40;;;3.60;;
4734;SDS011;2381;50.676;12.612;2022-08-21T07:27:30;13.40;;;4.00;;
4734;SDS011;2381;50.676;12.612;2022-08-21T07:30:33;16.53;;;8.60;;
4734;SDS011;2381;50.676;12.612;2022-08-21T07:33:36;17.17;;;7.83;;
4734;SDS011;2381;50.676;12.612;2022-08-21T07:36:39;16.07;;;8.10;;
4734;SDS011;2381;50.676;12.612;2022-08-21T07:39:42;17.37;;;6.23;;
4734;SDS011;2381;50.676;12.612;2022-08-21T07:42:47;13.40;;;2.57;;
4734;SDS011;2381;50.676;12.612;2022-08-21T07:45:53;23.37;;;5.27;;
4734;SDS011;2381;50.676;12.612;2022-08-21T07:48:56;15.93;;;8.00;;
4734;SDS011;2381;50.676;12.612;2022-08-21T07:51:59;17.00;;;8.00;;
4734;SDS011;2381;50.676;12.612;2022-08-21T07:55:02;18.60;;;8.80;;
4734;SDS011;2381;50.676;12.612;2022-08-21T07:58:08;16.43;;;7.07;;
4734;SDS011;2381;50.676;12.612;2022-08-21T08:01:11;13.50;;;4.23;;
4734;SDS011;2381;50.676;12.612;2022-08-21T08:04:15;14.07;;;5.23;;
4734;SDS011;2381;50.676;12.612;2022-08-21T08:07:17;13.60;;;4.97;;
4734;SDS011;2381;50.676;12.612;2022-08-21T08:10:20;13.63;;;5.20;;
4734;SDS011;2381;50.676;12.612;2022-08-21T08:13:26;13.60;;;4.90;;
4734;SDS011;2381;50.676;12.612;2022-08-21T08:16:29;15.17;;;6.00;;
4734;SDS011;2381;50.676;12.612;2022-08-21T08:19:32;13.20;;;4.03;;
4734;SDS011;2381;50.676;12.612;2022-08-21T08:22:36;15.50;;;6.47;;
4734;SDS011;2381;50.676;12.612;2022-08-21T08:25:40;17.83;;;4.53;;
4734;SDS011;2381;50.676;12.612;2022-08-21T08:28:45;14.97;;;6.40;;
4734;SDS011;2381;50.676;12.612;2022-08-21T08:31:49;14.73;;;4.13;;
4734;SDS011;2381;50.676;12.612;2022-08-21T08:34:52;13.03;;;2.57;;
4734;SDS011;2381;50.676;12.612;2022-08-21T08:37:54;15.97;;;6.90;;
4734;SDS011;2381;50.676;12.612;2022-08-21T08:41:00;14.47;;;5.53;;
4734;SDS011;2381;50.676;12.612;2022-08-21T08:44:09;16.33;;;4.40;;
4734;SDS011;2381;50.676;12.612;2022-08-21T08:47:12;15.50;;;5.67;;
4734;SDS011;2381;50.676;12.612;2022-08-21T08:50:19;14.40;;;4.73;;
4734;SDS011;2381;50.676;12.612;2022-08-21T08:53:27;15.10;;;6.23;;
4734;SDS011;2381;50.676;12.612;2022-08-21T08:56:34;16.17;;;6.83;;
4734;SDS011;2381;50.676;12.612;2022-08-21T08:59:41;17.87;;;4.13;;
4734;SDS011;2381;50.676;12.612;2022-08-21T09:02:46;16.27;;;4.00;;
4734;SDS011;2381;50.676;12.612;2022-08-21T09:05:50;13.27;;;2.97;;
4734;SDS011;2381;50.676;12.612;2022-08-21T09:09:09;13.27;;;3.73;;
4734;SDS011;2381;50.676;12.612;2022-08-21T09:12:29;13.03;;;2.13;;
4734;SDS011;2381;50.676;12.612;2022-08-21T09:15:43;13.27;;;2.77;;
4734;SDS011;2381;50.676;12.612;2022-08-21T09:18:54;15.63;;;6.97;;
4734;SDS011;2381;50.676;12.612;2022-08-21T09:22:08;15.73;;;5.57;;
4734;SDS011;2381;50.676;12.612;2022-08-21T09:25:20;15.20;;;5.70;;
4734;SDS011;2381;50.676;12.612;2022-08-21T09:28:26;20.90;;;4.67;;
4734;SDS011;2381;50.676;12.612;2022-08-21T09:31:34;13.20;;;2.60;;
4734;SDS011;2381;50.676;12.612;2022-08-21T09:34:39;14.83;;;6.23;;
4734;SDS011;2381;50.676;12.612;2022-08-21T09:37:48;16.33;;;2.57;;
4734;SDS011;2381;50.676;12.612;2022-08-21T09:40:58;13.40;;;4.00;;
4734;SDS011;2381;50.676;12.612;2022-08-21T09:44:04;14.30;;;3.10;;
4734;SDS011;2381;50.676;12.612;2022-08-21T09:47:10;12.87;;;1.70;;
4734;SDS011;2381;50.676;12.612;2022-08-21T09:50:15;13.27;;;2.43;;
4734;SDS011;2381;50.676;12.612;2022-08-21T09:53:24;13.73;;;3.40;;
4734;SDS011;2381;50.676;12.612;2022-08-21T09:56:37;12.93;;;2.30;;
4734;SDS011;2381;50.676;12.612;2022-08-21T10:00:07;12.87;;;2.00;;
4734;SDS011;2381;50.676;12.612;2022-08-21T10:03:21;12.83;;;1.87;;
4734;SDS011;2381;50.676;12.612;2022-08-21T10:06:28;13.00;;;2.67;;
4734;SDS011;2381;50.676;12.612;2022-08-21T10:09:33;13.87;;;5.37;;
4734;SDS011;2381;50.676;12.612;2022-08-21T10:12:41;12.77;;;1.70;;
4734;SDS011;2381;50.676;12.612;2022-08-21T10:15:51;12.90;;;2.17;;
4734;SDS011;2381;50.676;12.612;2022-08-21T10:19:20;12.97;;;2.20;;
4734;SDS011;2381;50.676;12.612;2022-08-21T10:22:32;13.80;;;4.17;;
4734;SDS011;2381;50.676;12.612;2022-08-21T10:25:41;13.13;;;2.63;;
4734;SDS011;2381;50.676;12.612;2022-08-21T10:29:14;13.10;;;2.60;;
4734;SDS011;2381;50.676;12.612;2022-08-21T10:32:42;13.50;;;2.80;;
4734;SDS011;2381;50.676;12.612;2022-08-21T10:35:55;13.20;;;2.43;;
4734;SDS011;2381;50.676;12.612;2022-08-21T10:39:07;12.87;;;2.17;;
4734;SDS011;2381;50.676;12.612;2022-08-21T10:42:38;12.90;;;2.30;;
4734;SDS011;2381;50.676;12.612;2022-08-21T10:45:53;14.93;;;2.07;;
4734;SDS011;2381;50.676;12.612;2022-08-21T10:49:08;12.90;;;1.80;;
4734;SDS011;2381;50.676;12.612;2022-08-21T10:52:33;13.07;;;2.03;;
4734;SDS011;2381;50.676;12.612;2022-08-21T10:55:48;13.00;;;2.10;;
4734;SDS011;2381;50.676;12.612;2022-08-21T10:59:06;16.23;;;4.23;;
4734;SDS011;2381;50.676;12.612;2022-08-21T11:02:21;13.00;;;2.10;;
4734;SDS011;2381;50.676;12.612;2022-08-21T11:05:35;12.80;;;1.90;;
4734;SDS011;2381;50.676;12.612;2022-08-21T11:08:53;13.00;;;2.30;;
4734;SDS011;2381;50.676;12.612;2022-08-21T11:12:03;12.73;;;1.83;;
4734;SDS011;2381;50.676;12.612;2022-08-21T11:15:18;16.07;;;5.73;;
4734;SDS011;2381;50.676;12.612;2022-08-21T11:18:31;13.50;;;2.13;;
4734;SDS011;2381;50.676;12.612;2022-08-21T11:21:37;12.97;;;2.63;;
4734;SDS011;2381;50.676;12.612;2022-08-21T11:24:49;12.67;;;1.80;;
4734;SDS011;2381;50.676;12.612;2022-08-21T11:27:58;15.10;;;3.10;;
4734;SDS011;2381;50.676;12.612;2022-08-21T11:31:07;12.80;;;2.37;;
4734;SDS011;2381;50.676;12.612;2022-08-21T11:34:33;12.83;;;2.23;;
4734;SDS011;2381;50.676;12.612;2022-08-21T11:37:49;13.50;;;2.80;;
4734;SDS011;2381;50.676;12.612;2022-08-21T11:41:06;13.60;;;3.57;;
4734;SDS011;2381;50.676;12.612;2022-08-21T11:44:23;17.63;;;2.73;;
4734;SDS011;2381;50.676;12.612;2022-08-21T11:47:49;12.83;;;1.93;;
4734;SDS011;2381;50.676;12.612;2022-08-21T11:50:58;12.93;;;2.53;;
4734;SDS011;2381;50.676;12.612;2022-08-21T11:54:10;15.80;;;2.37;;
4734;SDS011;2381;50.676;12.612;2022-08-21T11:57:26;14.90;;;3.77;;
4734;SDS011;2381;50.676;12.612;2022-08-21T12:00:35;14.70;;;4.17;;
4734;SDS011;2381;50.676;12.612;2022-08-21T12:03:52;13.10;;;2.50;;
4734;SDS011;2381;50.676;12.612;2022-08-21T12:07:08;12.57;;;1.40;;
4734;SDS011;2381;50.676;12.612;2022-08-21T12:10:14;12.73;;;1.93;;
4734;SDS011;2381;50.676;12.612;2022-08-21T12:13:24;12.60;;;1.60;;
4734;SDS011;2381;50.676;12.612;2022-08-21T12:16:43;12.77;;;2.03;;
4734;SDS011;2381;50.676;12.612;2022-08-21T12:19:56;12.73;;;2.10;;
4734;SDS011;2381;50.676;12.612;2022-08-21T12:23:03;12.80;;;2.13;;
4734;SDS011;2381;50.676;12.612;2022-08-21T12:26:17;14.23;;;4.03;;
4734;SDS011;2381;50.676;12.612;2022-08-21T12:29:27;13.00;;;3.00;;
4734;SDS011;2381;50.676;12.612;2022-08-21T12:32:42;12.63;;;1.50;;
4734;SDS011;2381;50.676;12.612;2022-08-21T12:35:48;12.97;;;1.80;;
4734;SDS011;2381;50.676;12.612;2022-08-21T12:38:54;13.27;;;3.00;;
4734;SDS011;2381;50.676;12.612;2022-08-21T12:42:00;12.73;;;2.00;;
4734;SDS011;2381;50.676;12.612;2022-08-21T12:45:14;13.50;;;2.27;;
4734;SDS011;2381;50.676;12.612;2022-08-21T12:48:23;12.67;;;1.90;;
4734;SDS011;2381;50.676;12.612;2022-08-21T12:51:32;12.93;;;1.70;;
4734;SDS011;2381;50.676;12.612;2022-08-21T12:54:41;12.63;;;1.53;;
4734;SDS011;2381;50.676;12.612;2022-08-21T12:57:46;12.73;;;1.80;;
4734;SDS011;2381;50.676;12.612;2022-08-21T13:00:51;13.07;;;2.30;;
4734;SDS011;2381;50.676;12.612;2022-08-21T13:03:57;12.57;;;1.50;;
4734;SDS011;2381;50.676;12.612;2022-08-21T13:07:05;12.93;;;2.63;;
4734;SDS011;2381;50.676;12.612;2022-08-21T13:10:14;12.80;;;1.97;;
4734;SDS011;2381;50.676;12.612;2022-08-21T13:13:22;12.53;;;1.43;;
4734;SDS011;2381;50.676;12.612;2022-08-21T13:16:30;12.80;;;1.83;;
4734;SDS011;2381;50.676;12.612;2022-08-21T13:19:36;13.30;;;2.90;;
4734;SDS011;2381;50.676;12.612;2022-08-21T13:22:40;13.23;;;2.60;;
4734;SDS011;2381;50.676;12.612;2022-08-21T13:25:45;12.57;;;1.60;;
4734;SDS011;2381;50.676;12.612;2022-08-21T13:28:48;12.90;;;2.03;;
4734;SDS011;2381;50.676;12.612;2022-08-21T13:31:54;13.47;;;2.43;;
4734;SDS011;2381;50.676;12.612;2022-08-21T13:34:58;17.80;;;7.70;;
4734;SDS011;2381;50.676;12.612;2022-08-21T13:38:09;13.23;;;2.33;;
4734;SDS011;2381;50.676;12.612;2022-08-21T13:41:16;12.67;;;2.03;;
4734;SDS011;2381;50.676;12.612;2022-08-21T13:44:31;14.70;;;3.80;;
4734;SDS011;2381;50.676;12.612;2022-08-21T13:47:38;12.57;;;1.57;;
4734;SDS011;2381;50.676;12.612;2022-08-21T13:50:41;12.57;;;1.50;;
4734;SDS011;2381;50.676;12.612;2022-08-21T13:53:46;13.40;;;2.70;;
4734;SDS011;2381;50.676;12.612;2022-08-21T13:56:52;13.73;;;2.47;;
4734;SDS011;2381;50.676;12.612;2022-08-21T14:00:09;12.60;;;1.67;;
4734;SDS011;2381;50.676;12.612;2022-08-21T14:03:29;12.47;;;1.30;;
4734;SDS011;2381;50.676;12.612;2022-08-21T14:06:36;12.63;;;1.87;;
4734;SDS011;2381;50.676;12.612;2022-08-21T14:09:41;12.47;;;1.40;;
4734;SDS011;2381;50.676;12.612;2022-08-21T14:12:46;12.73;;;2.00;;
4734;SDS011;2381;50.676;12.612;2022-08-21T14:15:54;12.47;;;1.50;;
4734;SDS011;2381;50.676;12.612;2022-08-21T14:19:09;12.57;;;1.73;;
4734;SDS011;2381;50.676;12.612;2022-08-21T14:22:23;12.93;;;2.17;;
4734;SDS011;2381;50.676;12.612;2022-08-21T14:25:37;12.47;;;1.50;;
4734;SDS011;2381;50.676;12.612;2022-08-21T14:28:44;12.57;;;1.77;;
4734;SDS011;2381;50.676;12.612;2022-08-21T14:31:49;22.10;;;2.70;;
4734;SDS011;2381;50.676;12.612;2022-08-21T14:34:54;13.30;;;1.67;;
4734;SDS011;2381;50.676;12.612;2022-08-21T14:37:59;12.43;;;1.30;;
4734;SDS011;2381;50.676;12.612;2022-08-21T14:41:03;12.57;;;1.80;;
4734;SDS011;2381;50.676;12.612;2022-08-21T14:44:11;12.60;;;1.80;;
4734;SDS011;2381;50.676;12.612;2022-08-21T14:47:13;12.53;;;1.50;;
4734;SDS011;2381;50.676;12.612;2022-08-21T14:50:18;12.80;;;2.40;;
4734;SDS011;2381;50.676;12.612;2022-08-21T14:53:21;12.90;;;2.20;;
4734;SDS011;2381;50.676;12.612;2022-08-21T14:56:24;12.53;;;1.60;;
4734;SDS011;2381;50.676;12.612;2022-08-21T14:59:27;12.67;;;2.23;;
4734;SDS011;2381;50.676;12.612;2022-08-21T15:02:30;16.00;;;4.03;;
4734;SDS011;2381;50.676;12.612;2022-08-21T15:05:34;12.50;;;1.70;;
4734;SDS011;2381;50.676;12.612;2022-08-21T15:08:37;12.50;;;1.53;;
4734;SDS011;2381;50.676;12.612;2022-08-21T15:11:41;12.63;;;1.87;;
4734;SDS011;2381;50.676;12.612;2022-08-21T15:14:44;12.73;;;2.10;;
4734;SDS011;2381;50.676;12.612;2022-08-21T15:17:47;12.90;;;1.90;;
4734;SDS011;2381;50.676;12.612;2022-08-21T15:20:51;12.83;;;2.80;;
4734;SDS011;2381;50.676;12.612;2022-08-21T15:23:55;13.30;;;3.27;;
4734;SDS011;2381;50.676;12.612;2022-08-21T15:26:58;12.47;;;1.53;;
4734;SDS011;2381;50.676;12.612;2022-08-21T15:30:03;12.43;;;1.50;;
4734;SDS011;2381;50.676;12.612;2022-08-21T15:33:07;12.50;;;1.60;;
4734;SDS011;2381;50.676;12.612;2022-08-21T15:36:13;13.30;;;3.20;;
4734;SDS011;2381;50.676;12.612;2022-08-21T15:39:18;12.40;;;1.40;;
4734;SDS011;2381;50.676;12.612;2022-08-21T15:42:25;12.53;;;1.60;;
4734;SDS011;2381;50.676;12.612;2022-08-21T15:45:29;12.60;;;1.70;;
4734;SDS011;2381;50.676;12.612;2022-08-21T15:48:32;12.37;;;1.30;;
4734;SDS011;2381;50.676;12.612;2022-08-21T15:51:37;12.70;;;1.87;;
4734;SDS011;2381;50.676;12.612;2022-08-21T15:54:44;12.43;;;1.43;;
4734;SDS011;2381;50.676;12.612;2022-08-21T15:57:48;12.67;;;1.90;;
4734;SDS011;2381;50.676;12.612;2022-08-21T16:00:59;12.63;;;2.23;;
4734;SDS011;2381;50.676;12.612;2022-08-21T16:04:04;12.53;;;1.60;;
4734;SDS011;2381;50.676;12.612;2022-08-21T16:07:10;12.67;;;1.50;;
4734;SDS011;2381;50.676;12.612;2022-08-21T16:10:14;12.83;;;2.30;;
4734;SDS011;2381;50.676;12.612;2022-08-21T16:13:23;14.70;;;2.87;;
4734;SDS011;2381;50.676;12.612;2022-08-21T16:16:28;12.63;;;1.87;;
4734;SDS011;2381;50.676;12.612;2022-08-21T16:19:33;12.73;;;2.23;;
4734;SDS011;2381;50.676;12.612;2022-08-21T16:22:39;12.53;;;1.60;;
4734;SDS011;2381;50.676;12.612;2022-08-21T16:25:45;13.87;;;2.63;;
4734;SDS011;2381;50.676;12.612;2022-08-21T16:28:49;12.53;;;2.00;;
4734;SDS011;2381;50.676;12.612;2022-08-21T16:31:56;12.77;;;2.33;;
4734;SDS011;2381;50.676;12.612;2022-08-21T16:34:59;12.57;;;1.90;;
4734;SDS011;2381;50.676;12.612;2022-08-21T16:38:04;17.73;;;1.60;;
4734;SDS011;2381;50.676;12.612;2022-08-21T16:41:07;12.43;;;1.63;;
4734;SDS011;2381;50.676;12.612;2022-08-21T16:44:12;13.60;;;2.50;;
4734;SDS011;2381;50.676;12.612;2022-08-21T16:47:15;13.50;;;2.80;;
4734;SDS011;2381;50.676;12.612;2022-08-21T16:50:27;12.50;;;1.90;;
4734;SDS011;2381;50.676;12.612;2022-08-21T16:53:31;12.37;;;1.33;;
4734;SDS011;2381;50.676;12.612;2022-08-21T16:56:34;12.47;;;1.40;;
4734;SDS011;2381;50.676;12.612;2022-08-21T16:59:41;12.40;;;1.40;;
4734;SDS011;2381;50.676;12.612;2022-08-21T17:02:44;12.43;;;1.80;;
4734;SDS011;2381;50.676;12.612;2022-08-21T17:05:49;12.70;;;1.93;;
4734;SDS011;2381;50.676;12.612;2022-08-21T17:08:54;12.43;;;1.87;;
4734;SDS011;2381;50.676;12.612;2022-08-21T17:11:57;12.37;;;1.50;;
4734;SDS011;2381;50.676;12.612;2022-08-21T17:15:02;12.40;;;1.50;;
4734;SDS011;2381;50.676;12.612;2022-08-21T17:18:09;12.53;;;1.77;;
4734;SDS011;2381;50.676;12.612;2022-08-21T17:21:14;12.80;;;2.83;;
4734;SDS011;2381;50.676;12.612;2022-08-21T17:24:21;16.70;;;2.47;;
4734;SDS011;2381;50.676;12.612;2022-08-21T17:27:24;13.50;;;2.57;;
4734;SDS011;2381;50.676;12.612;2022-08-21T17:30:29;12.43;;;1.53;;
4734;SDS011;2381;50.676;12.612;2022-08-21T17:33:41;12.37;;;1.20;;
4734;SDS011;2381;50.676;12.612;2022-08-21T17:36:50;12.60;;;1.73;;
4734;SDS011;2381;50.676;12.612;2022-08-21T17:39:55;15.67;;;2.33;;
4734;SDS011;2381;50.676;12.612;2022-08-21T17:42:58;15.93;;;3.60;;
4734;SDS011;2381;50.676;12.612;2022-08-21T17:46:02;13.10;;;2.33;;
4734;SDS011;2381;50.676;12.612;2022-08-21T17:49:06;12.53;;;1.70;;
4734;SDS011;2381;50.676;12.612;2022-08-21T17:52:09;12.57;;;1.53;;
4734;SDS011;2381;50.676;12.612;2022-08-21T17:55:14;12.77;;;2.23;;
4734;SDS011;2381;50.676;12.612;2022-08-21T17:58:18;12.77;;;2.33;;
4734;SDS011;2381;50.676;12.612;2022-08-21T18:01:21;13.40;;;3.00;;
4734;SDS011;2381;50.676;12.612;2022-08-21T18:04:27;14.60;;;3.27;;
4734;SDS011;2381;50.676;12.612;2022-08-21T18:07:31;14.30;;;3.43;;
4734;SDS011;2381;50.676;12.612;2022-08-21T18:10:36;12.53;;;1.73;;
4734;SDS011;2381;50.676;12.612;2022-08-21T18:17:19;12.73;;;2.47;;
4734;SDS011;2381;50.676;12.612;2022-08-21T18:20:24;12.53;;;2.00;;
4734;SDS011;2381;50.676;12.612;2022-08-21T18:23:27;12.47;;;1.30;;
4734;SDS011;2381;50.676;12.612;2022-08-21T18:26:46;13.87;;;2.60;;
4734;SDS011;2381;50.676;12.612;2022-08-21T18:29:50;22.30;;;4.77;;
4734;SDS011;2381;50.676;12.612;2022-08-21T18:32:55;12.47;;;1.50;;
4734;SDS011;2381;50.676;12.612;2022-08-21T18:35:59;12.90;;;2.53;;
4734;SDS011;2381;50.676;12.612;2022-08-21T18:39:05;16.30;;;3.60;;
4734;SDS011;2381;50.676;12.612;2022-08-21T18:42:29;12.63;;;1.87;;
4734;SDS011;2381;50.676;12.612;2022-08-21T18:45:38;12.63;;;2.07;;
4734;SDS011;2381;50.676;12.612;2022-08-21T18:48:42;16.80;;;2.90;;
4734;SDS011;2381;50.676;12.612;2022-08-21T18:51:45;12.77;;;2.30;;
4734;SDS011;2381;50.676;12.612;2022-08-21T18:54:50;12.60;;;1.97;;
4734;SDS011;2381;50.676;12.612;2022-08-21T18:57:54;27.53;;;5.53;;
4734;SDS011;2381;50.676;12.612;2022-08-21T19:00:58;12.57;;;2.10;;
4734;SDS011;2381;50.676;12.612;2022-08-21T19:04:02;12.60;;;1.80;;
4734;SDS011;2381;50.676;12.612;2022-08-21T19:07:09;13.67;;;2.73;;
4734;SDS011;2381;50.676;12.612;2022-08-21T19:10:15;12.70;;;1.80;;
4734;SDS011;2381;50.676;12.612;2022-08-21T19:13:31;12.70;;;1.63;;
4734;SDS011;2381;50.676;12.612;2022-08-21T19:16:35;12.67;;;1.90;;